x

8454049 - Quonset Point, Ri (qptr1) Weather Station

8:54 - Fri 31st Jul 2015 All times are EDT. -4 hours from GMT.

  • Wind
    5mph
  • Sea Temp 75°f
  • Ar Temp 76°f
  • Sea Pressure 1008.6mb
  • 8454049 - Quonset Point, Ri
  • 8454049 - Quonset Point, Ri

More Historic Weather Station data

Upgrade to MSW Pro to gain access to the past 30 days of data for over 8000 Wavebouys and Weather Stations around the globe.

Join Pro

Comparision Forecast

View Surf forecast
   
Sex 07/31 8:54 5
mph
1008.6mb 75f 76f
8:48 5 6 mph 1008.5mb 75f 76f
8:42 5 6 mph 1008.5mb 75f 77f
8:36 5
mph
1008.4mb 75f 77f
8:30 3 5 mph 1008.3mb 75f 77f
8:24 6
mph
1008.2mb 75f 78f
8:18 5
mph
1008.1mb 75f 78f
8:12 5 6 mph 1008.1mb 75f 79f
8:06 6
mph
1008.1mb 75f 79f
8:00 6
mph
1008.1mb 75f 79f
7:54 6
mph
1008mb 75f 80f
7:48 5 6 mph 1008mb 75f 80f
7:42 5 6 mph 1007.9mb 75f 81f
7:36 5 7 mph 1007.9mb 75f 82f
7:00 8 10 mph 1007.7mb 75f 84f
6:54 7 9 mph 1007.6mb 75f 85f
6:48 7 13 mph 1007.6mb 75f 85f
6:42 10 13 mph 1007.5mb 75f 84f
6:36 8 13 mph 1007.5mb 75f 85f
6:30 9 11 mph 1007.5mb 75f 85f
6:24 8 13 mph 1007.5mb 75f 85f
6:18 9 14 mph 1007.5mb 75f 85f
6:12 9 14 mph 1007.5mb 75f 85f
6:06 9 14 mph 1007.5mb 75f 85f
6:00 10 13 mph 1007.5mb 75f 85f
5:54 7 11 mph 1007.5mb 75f 84f
5:48 9 11 mph 1007.5mb 75f 85f
5:42 9 13 mph 1007.5mb 75f 85f
5:36 11 13 mph 1007.5mb 75f 84f
5:30 13 15 mph 1007.5mb 75f 83f
5:24 9 11 mph 1007.6mb 75f 82f
5:18 11
mph
1007.6mb 74f 82f
5:12 11 16 mph 1007.6mb 74f 83f
5:06 13 16 mph 1007.7mb 74f 82f
5:00 9 11 mph 1007.7mb 74f 82f
4:54 13 15 mph 1007.7mb 74f 82f
4:48 16 20 mph 1007.7mb 74f 83f
4:42 15 20 mph 1007.7mb 74f 82f
4:36 16 17 mph 1007.7mb 74f 82f
4:30 14 18 mph 1007.7mb 74f 82f
4:24 15 20 mph 1007.8mb 75f 82f
4:18 20 21 mph 1007.7mb 75f 82f
4:12 16 20 mph 1007.7mb 75f 82f
4:06 15 21 mph 1007.7mb 75f 82f
4:00 17 20 mph 1007.7mb 75f 82f
3:54 15 18 mph 1007.7mb 74f 82f
3:48 14 17 mph 1007.7mb 74f 82f
3:42 13 20 mph 1007.8mb 74f 82f
3:36 11 15 mph 1007.8mb 74f 82f
3:30 16 21 mph 1007.8mb 74f 82f
3:24 8 14 mph 1007.8mb 74f 85f
3:18 9 17 mph 1007.8mb 74f 85f
3:12 11 21 mph 1007.9mb 74f 85f
3:06 13 20 mph 1007.9mb 74f 83f
3:00 14 17 mph 1008mb 74f 85f
2:54 11 17 mph 1008mb 74f 83f
2:48 17 24 mph 1008mb 74f 84f
2:42 15 18 mph 1008.1mb 74f 83f
2:36 13 21 mph 1008.2mb 74f 83f
2:30 15 17 mph 1008.2mb 74f 83f
2:24 14 18 mph 1008.3mb 74f 83f
2:18 14 18 mph 1008.3mb 74f 83f
2:12 10 17 mph 1008.4mb 74f 84f
2:06 14 18 mph 1008.5mb 74f 83f
2:00 16 21 mph 1008.5mb 74f 83f
1:54 11 22 mph 1008.5mb 74f 83f
1:48 14 22 mph 1008.5mb 74f 82f
1:42 11 18 mph 1008.5mb 74f 82f
1:36 10 21 mph 1008.6mb 74f 83f
1:30 14 21 mph 1008.6mb 74f 83f
1:24 15 21 mph 1008.7mb 74f 82f
1:18 14 17 mph 1008.7mb 74f 83f
1:12 15 18 mph 1008.8mb 74f 82f
1:06 11 17 mph 1008.8mb 74f 81f
1:00 10 14 mph 1008.9mb 74f 82f
12:54 11 14 mph 1009mb 74f 82f
12:48 9 15 mph 1009mb 73f 82f
12:42 11 17 mph 1009mb 73f 83f
12:36 15 20 mph 1009.1mb 74f 82f
12:30 11 15 mph 1009.2mb 74f 81f
12:24 13 20 mph 1009.2mb 73f 83f
12:18 15 17 mph 1009.2mb 73f 81f
12:12 10 14 mph 1009.3mb 73f 81f
12:06 8 16 mph 1009.3mb 73f 82f
12:00 10 17 mph 1009.4mb 73f 82f
11:54 14 18 mph 1009.4mb 73f 81f
11:48 14 20 mph 1009.5mb 73f 81f
11:42 11 14 mph 1009.5mb 73f 81f
11:36 9 16 mph 1009.5mb 73f 82f
11:30 10 16 mph 1009.5mb 72f 83f
11:24 11 17 mph 1009.6mb 71f 82f
11:18 13 15 mph 1009.6mb 71f 81f
11:12 11 14 mph 1009.6mb 71f 80f
11:06 9 11 mph 1009.6mb 71f 80f
11:00 9 11 mph 1009.6mb 71f 79f
10:54 10 14 mph 1009.6mb 71f 79f
10:48 8 10 mph 1009.6mb 72f 79f
10:42 10 11 mph 1009.6mb 72f 81f
10:36 8 11 mph 1009.6mb 72f 79f
10:30 10 14 mph 1009.6mb 71f 80f
10:24 9 11 mph 1009.6mb 71f 79f
10:18 11 13 mph 1009.6mb 71f 78f
10:12 9 10 mph 1009.6mb 72f 78f
10:06 8 10 mph 1009.5mb 72f 79f
10:00 7 13 mph 1009.5mb 72f 78f
9:54 9 13 mph 1009.5mb 72f 78f
9:48 9 10 mph 1009.5mb 72f 78f
9:42 7 10 mph 1009.5mb 72f 77f
9:36 8 11 mph 1009.5mb 72f 78f
9:30 9 11 mph 1009.5mb 72f 78f
9:24 10 13 mph 1009.6mb 72f 78f
9:18 10 14 mph 1009.6mb 73f 78f
9:12 11 15 mph 1009.6mb 73f 78f
9:06 10 15 mph 1009.6mb 73f 78f
9:00 9 14 mph 1009.6mb 73f 78f
8:54 10 15 mph 1009.6mb 73f 78f
8:48 9 13 mph 1009.5mb 73f 77f
8:42 9 13 mph 1009.5mb 73f 77f
8:36 9 16 mph 1009.6mb 73f 77f
8:30 11 14 mph 1009.7mb 73f 77f
8:24 8 13 mph 1009.6mb 73f 77f
8:18 9 11 mph 1009.6mb 73f 76f
8:12 8 11 mph 1009.7mb 73f 76f
8:06 9 13 mph 1009.7mb 73f 76f
8:00 9 11 mph 1009.6mb 73f 76f
7:54 9 13 mph 1009.7mb 73f 76f
7:48 9 14 mph 1009.7mb 73f 75f
7:42 8 11 mph 1009.7mb 73f 75f
7:36 9 11 mph 1009.6mb 73f 75f
7:30 7 10 mph 1009.6mb 73f 75f
7:24 7 10 mph 1009.6mb 73f 74f
7:18 8 10 mph 1009.6mb 73f 74f
7:12 8 9 mph 1009.6mb 73f 74f
7:06 8 10 mph 1009.5mb 73f 74f
7:00 7 9 mph 1009.4mb 73f 73f
6:54 7 8 mph 1009.3mb 73f 73f
6:48 8 9 mph 1009.3mb 73f 73f
6:42 8 9 mph 1009.2mb 73f 73f
6:36 8 9 mph 1009.1mb 73f 73f
6:30 7 8 mph 1009.1mb 73f 73f
6:24 7 9 mph 1009mb 73f 73f
6:18 6 7 mph 1008.9mb 73f 72f
6:12 7
mph
1008.9mb 73f 72f
6:06 7 8 mph 1008.9mb 74f 72f
6:00 7
mph
1008.8mb 73f 72f
5:54 7 8 mph 1008.8mb 73f 72f
5:48 7 9 mph 1008.7mb 73f 72f
5:42 8
mph
1008.8mb 73f 72f
5:36 7 9 mph 1008.7mb 74f 72f
5:30 7 8 mph 1008.7mb 74f 73f
5:24 7 9 mph 1008.6mb 74f 73f
5:18 7 9 mph 1008.6mb 74f 73f
5:12 6 8 mph 1008.6mb 73f 73f
5:06 5 6 mph 1008.5mb 73f 73f
5:00 6 7 mph 1008.5mb 73f 73f
4:54 6 7 mph 1008.5mb 73f 73f
4:48 6
mph
1008.5mb 73f 73f
4:42 5 6 mph 1008.4mb 73f 73f
4:36 6
mph
1008.4mb 73f 73f
4:30 5 6 mph 1008.3mb 73f 73f
4:24 5
mph
1008.4mb 73f 73f
4:18 5
mph
1008.3mb 73f 73f
4:12 3 5 mph 1008.3mb 73f 73f
4:06 3 5 mph 1008.2mb 73f 73f
4:00 5 6 mph 1008.2mb 73f 74f
3:54 5 6 mph 1008.3mb 73f 74f
3:48 6
mph
1008.3mb 73f 74f
3:42 6 7 mph 1008.3mb 73f 74f
3:36 6
mph
1008.3mb 73f 74f
3:30 5 6 mph 1008.2mb 73f 74f
3:24 3 5 mph 1008.2mb 73f 74f
3:18 3 5 mph 1008.3mb 73f 74f
3:12 5
mph
1008.3mb 73f 74f
3:06 3 6 mph 1008.3mb 73f 74f
3:00 5 6 mph 1008.4mb 73f 74f
2:54 5 6 mph 1008.4mb 73f 74f
2:48 5 8 mph 1008.3mb 73f 74f
2:42 6 8 mph 1008.3mb 73f 74f
2:36 6 8 mph 1008.4mb 73f 74f
2:30 5 6 mph 1008.4mb 73f 74f
2:24 6 7 mph 1008.5mb 73f 74f
2:18 5 6 mph 1008.5mb 73f 74f
2:12 6 8 mph 1008.6mb 73f 74f
2:06 6 8 mph 1008.7mb 73f 74f
2:00 7 8 mph 1008.8mb 73f 74f
1:54 7 9 mph 1008.8mb 73f 74f
1:48 8 10 mph 1008.8mb 73f 74f
1:42 9 10 mph 1008.9mb 73f 74f
1:36 7 8 mph 1008.9mb 73f 74f
1:30 8 10 mph 1008.9mb 73f 74f
1:24 8 9 mph 1008.9mb 73f 74f
1:18 7 9 mph 1008.9mb 73f 74f
1:12 8 9 mph 1008.9mb 73f 74f
1:06 7 10 mph 1008.9mb 73f 74f
1:00 7 9 mph 1008.9mb 73f 74f
12:54 8 9 mph 1008.9mb 74f 74f
12:48 7 9 mph 1008.8mb 74f 74f
12:42 8 9 mph 1008.9mb 74f 74f
12:36 9
mph
1009mb 74f 74f
12:30 9 10 mph 1009mb 74f 74f
12:24 9
mph
1009.1mb 74f 74f
12:18 9 10 mph 1009.1mb 74f 74f
12:12 8 9 mph 1009.2mb 73f 74f
12:06 7 8 mph 1009.2mb 73f 74f
12:00 6 8 mph 1009.2mb 74f 75f
Qui 07/30 11:54 5 6 mph 1009mb 74f 75f
11:48 5 8 mph 1009.1mb 74f 75f
11:42 7 8 mph 1009.1mb 74f 75f
11:36 6 8 mph 1009mb 74f 75f
11:30 7 9 mph 1009mb 74f 75f
11:24 8 10 mph 1009mb 74f 74f
11:18 7 8 mph 1009mb 74f 74f
11:12 6 8 mph 1009mb 73f 74f
11:06 7 8 mph 1009mb 73f 74f
11:00 6 8 mph 1009.1mb 73f 74f
10:54 6
mph
1009.2mb 73f 74f
10:48 5 6 mph 1009.4mb 72f 74f
10:42 5 6 mph 1009.4mb 72f 74f
10:36 5 6 mph 1009.5mb 72f 74f
10:30 6 7 mph 1009.4mb 72f 74f
10:24 7 8 mph 1009.3mb 72f 74f
10:18 7 8 mph 1009.3mb 72f 74f
10:12 7 9 mph 1009.4mb 72f 74f
10:06 7 9 mph 1009.4mb 72f 74f
10:00 8 10 mph 1009.5mb 72f 74f
9:54 8 13 mph 1009.5mb 72f 74f
9:48 9 10 mph 1009.4mb 71f 74f
9:42 8 11 mph 1009.5mb 71f 74f
9:36 11 13 mph 1009.5mb 71f 74f
9:30 9 11 mph 1009.4mb 71f 74f
9:24 9 11 mph 1009.4mb 71f 74f
9:18 9 11 mph 1009.4mb 71f 74f
9:12 10 13 mph 1009.3mb 72f 74f
9:06 11 13 mph 1009.2mb 72f 74f
9:00 10 11 mph 1009.2mb 73f 74f
8:54 10 13 mph 1009.1mb 73f 74f
8:48 13 15 mph 1009.1mb 73f 73f
8:42 13 15 mph 1009.1mb 74f 73f
8:36 11 16 mph 1009.1mb 74f 73f
8:30 14 17 mph 1009mb 74f 74f
8:24 15 17 mph 1009.3mb 74f 74f
8:18 15 20 mph 1009.3mb 74f 74f
8:12 16 22 mph 1009.4mb 74f 74f
8:06 18 21 mph 1009.4mb 75f 73f
8:00 17 25 mph 1009.5mb 75f 73f
7:54 22 25 mph 1009.6mb 75f 73f
7:48 15 24 mph 1009.6mb 75f 73f
7:42 21 39 mph 1009.7mb 75f 73f
7:36 22 26 mph 1009.7mb 75f 75f
7:30 17 22 mph 1009.7mb 75f 75f
7:24 20 23 mph 1009.7mb 75f 76f
7:18 20 24 mph 1009.5mb 75f 76f
7:12 21 24 mph 1009.4mb 75f 76f
7:06 23 28 mph 1009.4mb 75f 76f
7:00 20 24 mph 1009.5mb 75f 76f
6:54 21 25 mph 1009.3mb 75f 76f
6:48 21 24 mph 1009.4mb 75f 76f
6:42 21 25 mph 1009.2mb 75f 76f
6:36 18 24 mph 1009.2mb 75f 76f
6:30 18 28 mph 1009.1mb 75f 77f
6:24 21 28 mph 1009mb 75f 77f
6:18 21 26 mph 1008.8mb 75f 77f
6:12 20 23 mph 1008.9mb 75f 77f
6:06 20 25 mph 1008.9mb 75f 77f
6:00 23 29 mph 1008.9mb 75f 77f
5:54 24 29 mph 1008.9mb 75f 77f
5:48 23 26 mph 1008.9mb 75f 77f
5:42 21 25 mph 1009mb 75f 77f
5:36 24 28 mph 1009mb 75f 78f
5:30 21 29 mph 1009mb 75f 78f
5:24 26 31 mph 1009mb 75f 78f
5:18 20 26 mph 1009.1mb 75f 78f
5:12 21 25 mph 1009.1mb 75f 78f
5:06 21 28 mph 1009.1mb 75f 78f
5:00 25 30 mph 1009.1mb 75f 79f
4:54 22 28 mph 1009mb 75f 79f
4:48 24 30 mph 1009mb 75f 79f
4:42 24 28 mph 1009mb 75f 79f
4:36 22 29 mph 1009mb 75f 79f
4:30 20 29 mph 1008.9mb 75f 79f
4:24 21 23 mph 1009.1mb 75f 79f
4:18 18 26 mph 1009.2mb 75f 79f
4:12 23 26 mph 1009.1mb 75f 79f
4:06 22 26 mph 1009.2mb 75f 79f
4:00 24 29 mph 1009.3mb 75f 80f
3:54 22 26 mph 1009.3mb 75f 79f
3:48 22 26 mph 1009.3mb 75f 80f
3:42 21 24 mph 1009.3mb 75f 80f
3:36 16 23 mph 1009.4mb 75f 80f
3:30 17 23 mph 1009.5mb 75f 80f
3:24 18 23 mph 1009.6mb 75f 80f
3:18 21 24 mph 1009.7mb 75f 80f
3:12 18 25 mph 1009.8mb 75f 80f
3:06 21 24 mph 1009.9mb 75f 80f
3:00 20 25 mph 1010mb 75f 79f
2:54 23 26 mph 1009.9mb 75f 80f
2:48 20 24 mph 1010.1mb 75f 80f
2:42 22 26 mph 1010.1mb 75f 80f
2:36 21 24 mph 1010.1mb 75f 80f
2:30 18 23 mph 1010.2mb 75f 80f
2:24 20 24 mph 1010.3mb 75f 80f
2:18 20 23 mph 1010.4mb 75f 80f
2:12 18 22 mph 1010.4mb 75f 80f
2:06 18 22 mph 1010.5mb 75f 80f
2:00 15 20 mph 1010.6mb 75f 80f
1:54 18 22 mph 1010.6mb 75f 80f
1:48 18 22 mph 1010.7mb 75f 81f
1:42 17 21 mph 1010.7mb 75f 80f
1:36 17 20 mph 1010.8mb 75f 80f
1:30 20 24 mph 1010.8mb 75f 80f
1:24 21 26 mph 1010.8mb 75f 80f
1:18 22 26 mph 1010.9mb 75f 80f
1:12 20 24 mph 1010.9mb 75f 80f
1:06 20 23 mph 1011mb 75f 80f
1:00 16 21 mph 1011.1mb 75f 81f
12:54 18 21 mph 1011.1mb 75f 80f
12:48 20 23 mph 1011.1mb 74f 80f
12:42 16 21 mph 1011.2mb 74f 80f
12:36 16 18 mph 1011.2mb 74f 80f
12:30 18 21 mph 1011.2mb 74f 81f
12:24 18 21 mph 1011.2mb 74f 81f
12:18 15 17 mph 1011.2mb 75f 80f
12:12 18 22 mph 1011.2mb 75f 81f
12:06 15 17 mph 1011.3mb 75f 81f
12:00 15 17 mph 1011.3mb 75f 81f
11:54 14 21 mph 1011.4mb 75f 81f
11:48 11 15 mph 1011.4mb 75f 81f
11:42 13 16 mph 1011.5mb 74f 81f
11:30 9 11 mph 1011.5mb 74f 81f
11:24 7 10 mph 1011.5mb 74f 80f
11:18 9 14 mph 1011.5mb 74f 80f
11:12 13 15 mph 1011.6mb 74f 80f
11:06 16 18 mph 1011.4mb 74f 81f
11:00 16 18 mph 1011.4mb 74f 81f
10:54 15 18 mph 1011.5mb 74f 81f
10:48 17 22 mph 1011.5mb 74f 81f
10:42 21 22 mph 1011.5mb 74f 81f
10:36 11 14 mph 1011.5mb 72f 79f
10:30 10 11 mph 1011.6mb 72f 78f
10:24 10 14 mph 1011.6mb 72f 78f
10:18 13 15 mph 1011.6mb 72f 78f
10:12 13 14 mph 1011.6mb 72f 77f
10:06 11 14 mph 1011.7mb 72f 77f
10:00 11 15 mph 1011.7mb 71f 77f
9:54 11 14 mph 1011.8mb 71f 77f
9:48 9 13 mph 1011.8mb 72f 78f
9:42 9 11 mph 1011.8mb 71f 80f
9:36 8 9 mph 1011.9mb 71f 80f
9:30 9 10 mph 1011.9mb 71f 80f
9:24 8 11 mph 1011.9mb 71f 79f
9:18 8 13 mph 1012.1mb 71f 79f
9:12 10 11 mph 1012.1mb 72f 78f
9:06 10 14 mph 1012.2mb 72f 78f
9:00 14 15 mph 1012.2mb 72f 78f
8:54 13 15 mph 1012.3mb 72f 78f
8:48  -  mph - - 77f
8:42  -  mph - - 77f
8:36  -  mph - - 77f
8:30  -  mph - - 77f
8:24  -  mph - - 77f
8:18  -  mph - - 77f
8:12  -  mph - - 76f
8:06  -  mph - - 76f
8:00  -  mph - - 76f
7:54  -  mph - - 76f
7:48  -  mph - - 76f
7:30  -  mph - - 76f
7:24  -  mph - - 76f
7:18  -  mph - - 76f
7:12  -  mph - - 76f
7:06  -  mph - - 76f
7:00  -  mph - - 76f
6:54  -  mph - - 75f
6:48  -  mph - - 75f
6:42  -  mph - - 75f
6:36  -  mph - - 75f
6:30  -  mph - - 74f
6:24  -  mph - - 74f
6:18  -  mph - - 74f
6:12  -  mph - - 74f
6:06  -  mph - - 74f
6:00  -  mph - - 74f
5:54  -  mph - - 74f
5:48  -  mph 1012mb 74f 74f
5:42  -  mph 1012mb 74f 74f
5:36  -  mph 1012.1mb 74f 74f
5:30  -  mph 1012mb 74f 74f
5:24  -  mph 1012mb 74f 74f
5:18  -  mph - - 74f
5:12  -  mph - - 74f
5:06  -  mph - - 74f
5:00  -  mph - 74f 74f
4:54  -  mph - 74f 74f
4:48  -  mph - 74f 74f
4:42  -  mph - 74f 74f
4:36  -  mph - 74f 74f
4:30  -  mph - - 74f
4:24  -  mph - - 74f
4:18  -  mph - - 74f
4:12  -  mph - - 74f
4:06  -  mph - - 74f
4:00  -  mph 1012.1mb - 74f
3:54  -  mph 1012.1mb - 74f
3:48  -  mph - - 74f
3:42  -  mph - - 74f
3:36  -  mph - - 73f
3:30  -  mph - 75f 74f
3:24  -  mph - 75f 74f
3:18  -  mph - 75f 74f
3:12  -  mph - 75f 74f
3:06  -  mph - 75f 74f
3:00  -  mph - 75f 74f
2:54  -  mph - 75f 74f
2:48  -  mph - - 74f
2:42  -  mph - - 74f
2:36  -  mph - - 74f
2:30  -  mph 1012.1mb 75f 74f
2:24  -  mph 1012.1mb 75f 74f
2:18  -  mph 1012.2mb 75f 74f
2:12  -  mph 1012.2mb 75f 74f
2:06  -  mph 1012.3mb 75f 74f
2:00  -  mph 1012.3mb 75f 74f
1:54  -  mph 1012.3mb 75f 74f
1:48  -  mph 1012.3mb 75f 74f
1:18  -  mph - - 75f
1:12  -  mph - - 75f
1:06  -  mph - - 75f
1:00  -  mph - - 75f
12:54  -  mph - - 75f
12:48  -  mph - - 75f
12:42  -  mph - - 76f
12:36  -  mph - - 76f
12:30  -  mph - - 76f
12:24  -  mph - - 76f
12:18  -  mph - - 76f
12:12  -  mph - - 76f
12:06  -  mph - - 76f
12:00  -  mph - - 76f
Qua 07/29 11:54  -  mph - - 76f
11:48  -  mph - - 76f
11:42  -  mph - - 76f
11:36  -  mph - - 76f
11:30  -  mph - - 76f
11:24  -  mph - - 76f
11:18  -  mph - - 76f
11:12  -  mph - - 77f
11:06  -  mph - - 77f
11:00  -  mph - - 77f
10:54  -  mph - - 77f
10:48  -  mph - - 77f
10:42  -  mph - - 78f
10:36  -  mph - - 78f
10:30  -  mph - - 78f
10:24  -  mph - - 78f
10:18  -  mph - - 78f
10:12  -  mph - - 78f
10:06  -  mph - - 77f
10:00  -  mph - 71f 77f
9:54  -  mph - 71f 77f
9:48 7 8 mph 1012.8mb 71f 77f
9:42 7 8 mph 1012.8mb 71f 77f
9:36 8
mph
1012.8mb 71f 77f
9:30  -  mph - 71f 77f
9:24  -  mph - 71f 77f
9:18  -  mph - - 77f
9:12  -  mph - - 77f
9:06  -  mph - - 77f
9:00  -  mph - - 78f
8:54  -  mph - - 78f
8:48 7 8 mph 1012.6mb 72f 77f
8:42 7
mph
1012.6mb 72f 78f
8:36 7
mph
1012.6mb 72f 78f
8:30  -  mph 1012.4mb 72f 77f
8:24  -  mph 1012.4mb 72f 79f
8:18  -  mph 1012.4mb 72f 79f
8:12  -  mph 1012.3mb 72f 80f
8:06  -  mph 1012.3mb 72f 80f
8:00  -  mph - 72f 81f
7:54  -  mph - 72f 81f
7:48  -  mph - 72f 81f
7:42  -  mph - 73f 81f
7:36  -  mph - 73f 81f
7:30  -  mph - 73f 82f
7:24  -  mph - 73f 82f
7:18  -  mph - 73f 82f
7:12  -  mph - 73f 82f
7:06  -  mph - 73f 83f
7:00 11 13 mph 1012.1mb 74f 82f
6:54 11 14 mph 1012.1mb 74f 83f
6:48 11 14 mph 1012mb 75f 83f
6:42 13 15 mph 1011.9mb 75f 82f
6:36 14 16 mph 1012mb 76f 83f
6:30  -  mph - 77f 83f
6:24  -  mph - 77f 83f
6:18  -  mph - - 83f
6:12  -  mph - - 83f
6:06  -  mph - - 83f
6:00  -  mph - 77f 83f
5:54  -  mph - 77f 83f
5:48  -  mph - 77f 83f
5:42  -  mph - 77f 83f
5:36  -  mph - 76f 84f
5:30  -  mph - 76f 83f
5:24  -  mph - 76f 84f
5:18  -  mph - 77f 83f
5:12  -  mph - 76f 83f
5:06  -  mph - 76f 83f
5:00  -  mph 1012.3mb 76f 84f
4:54  -  mph 1012.3mb 76f 84f
4:48  -  mph 1012.3mb 76f 84f
4:42  -  mph 1012.4mb 76f 84f
4:36  -  mph 1012.3mb 76f 84f
4:30  -  mph 1012.4mb 76f 84f
4:24  -  mph 1012.4mb 76f 84f
4:18  -  mph - - 84f
4:12  -  mph - - 85f
4:06  -  mph - - 84f
4:00  -  mph - - 85f
3:54  -  mph - - 85f
3:48  -  mph - - 85f
3:42  -  mph - - 85f
3:36  -  mph - - 84f
3:30  -  mph - - 84f
3:24  -  mph - - 81f
3:18  -  mph - - 80f
3:12  -  mph - - 84f
3:06  -  mph - - 86f
3:00  -  mph - - 85f
2:54  -  mph - - 85f
2:48  -  mph - - 84f
2:42  -  mph - - 81f
2:36  -  mph - - 80f
2:30  -  mph - - 80f
2:24  -  mph - - 81f
2:18  -  mph - - 81f
2:12  -  mph - - 80f
2:06  -  mph - - 80f
2:00  -  mph - - 80f
1:54  -  mph - - 80f
1:48  -  mph - - 80f
1:42  -  mph - - 80f
1:36  -  mph - - 80f
1:30  -  mph - - 80f
1:24  -  mph - - 80f
1:18 14 15 mph 1013.4mb 76f 80f
1:12 14 15 mph 1013.4mb 75f 80f
1:06 14 15 mph 1013.4mb 75f 79f
1:00 13 14 mph 1013.5mb 76f 79f
12:54 13 14 mph 1013.5mb 76f 79f
12:48 14 15 mph 1013.5mb 75f 80f
11:54 13
mph
1014mb 75f 78f
11:48 13 14 mph 1014.1mb 75f 78f
11:42 11 14 mph 1014.1mb 75f 78f
11:36 11 13 mph 1014.1mb 74f 77f
11:30 11 13 mph 1014.1mb 74f 77f
11:24 11 13 mph 1014.2mb 74f 76f
11:18 10 11 mph 1014.2mb 74f 76f
11:12 10
mph
1014.3mb 73f 76f
11:06 9
mph
1014.3mb 73f 76f
11:00 8
mph
1014.4mb 73f 76f
10:54 7 8 mph 1014.4mb 73f 77f
10:48 7
mph
1014.5mb 73f 78f
10:42 6 7 mph 1014.5mb 73f 78f
10:36 5 6 mph 1014.5mb 73f 77f
10:30 3 5 mph 1014.6mb 73f 77f
10:24 5
mph
1014.5mb 73f 77f
10:18 5
mph
1014.5mb 73f 78f
10:12 5 6 mph 1014.4mb 72f 78f
10:06 6
mph
1014.3mb 72f 78f
10:00 5
mph
1014.4mb 72f 77f
9:54 3 5 mph 1014.4mb 72f 77f
9:48 3 5 mph 1014.4mb 72f 76f
9:42 5 6 mph 1014.4mb 72f 76f
9:36 5
mph
1014.3mb 72f 76f
9:30 5
mph
1014.3mb 72f 76f
9:24 2
mph
1014.3mb 72f 76f
9:18 2
mph
1014.3mb 72f 76f
9:12 2
mph
1014.2mb 72f 76f
9:06 2
mph
1014.2mb 72f 75f
9:00 2 3 mph 1014.2mb 72f 75f
8:54 2 3 mph 1014.2mb 72f 75f
8:48 2 3 mph 1014.2mb 72f 75f
8:42 2 3 mph 1014.2mb 72f 75f
8:36 2
mph
1014.2mb 72f 75f
8:30 2 3 mph 1014.3mb 72f 75f
8:24 3 5 mph 1014.2mb 72f 75f
8:18 3
mph
1014.3mb 73f 75f
8:12 2 3 mph 1014.3mb 73f 75f
8:06 3
mph
1014.3mb 73f 75f
8:00 2 3 mph 1014.3mb 73f 75f
7:54 2
mph
1014.3mb 73f 75f
7:48 2 3 mph 1014.3mb 73f 75f
7:42 2 3 mph 1014.4mb 73f 75f
7:36 2 3 mph 1014.3mb 73f 75f
7:30 3
mph
1014.3mb 73f 74f
7:24 3 5 mph 1014.2mb 73f 74f
7:18 3 5 mph 1014.2mb 73f 74f
7:12 3 5 mph 1014.2mb 73f 74f
7:06 3 5 mph 1014.2mb 73f 74f
7:00 3 5 mph 1014.2mb 74f 74f
6:54 2
mph
1014.2mb 74f 74f
6:48 2 3 mph 1014.1mb 74f 74f
6:42 1 2 mph 1014.2mb 74f 74f
6:36 1
mph
1014.1mb 74f 74f
6:30  -  1 mph 1014.1mb 74f 74f
6:24 1
mph
1014.1mb 74f 74f
6:18  -  2 mph 1014mb 74f 73f
6:12 2
mph
1013.9mb 74f 73f
6:06  -  2 mph 1013.9mb 74f 73f
6:00 2
mph
1013.8mb 74f 72f
5:54 2 3 mph 1013.8mb 74f 72f
5:48 2 3 mph 1013.7mb 74f 72f
5:42 2 3 mph 1013.7mb 74f 72f
5:36 2
mph
1013.7mb 74f 71f
5:30  -  1 mph 1013.7mb 74f 71f
5:24  -  1 mph 1013.6mb 74f 71f
5:18  -  3 mph 1013.5mb 74f 71f
5:12 1 2 mph 1013.5mb 74f 71f
5:06 2
mph
1013.5mb 74f 71f
5:00 1 2 mph 1013.4mb 74f 71f
4:54 2
mph
1013.5mb 74f 71f
4:48 2 3 mph 1013.4mb 74f 71f
4:42 2
mph
1013.4mb 74f 71f
4:36 1 2 mph 1013.3mb 74f 71f
4:30 1 2 mph 1013.3mb 74f 71f
4:24 1 2 mph 1013.3mb 74f 71f
4:18 1 3 mph 1013.3mb 74f 71f
4:12  -  1 mph 1013.3mb 74f 71f
4:06  -  mph 1013.3mb 74f 71f
4:00  -  1 mph 1013.3mb 74f 71f
3:54  -  1 mph 1013.2mb 74f 71f
3:48  -  mph 1013.2mb 74f 71f
3:42  -  1 mph 1013.2mb 74f 71f
3:36  -  mph 1013.3mb 74f 71f
3:30  -  2 mph 1013.2mb 74f 71f
3:24 2
mph
1013.2mb 74f 71f
3:18 1 2 mph 1013.2mb 74f 71f
3:12 2
mph
1013.3mb 74f 71f
3:06 2 3 mph 1013.3mb 74f 71f
3:00 3
mph
1013.3mb 74f 71f
2:54 2 3 mph 1013.4mb 74f 71f
2:48 3
mph
- 74f 71f
2:42 2 5 mph - 74f 71f
2:36 3 5 mph - 74f 71f
2:30 3 5 mph 1013.4mb 74f 71f
2:24 2 3 mph 1013.3mb 74f 71f
2:18 2 3 mph 1013.5mb 74f 71f
2:12 2 3 mph 1013.5mb 74f 71f
2:06 3
mph
1013.5mb 74f 71f
2:00 3 6 mph 1013.6mb 74f 71f
1:54 5 6 mph 1013.7mb 74f 71f
1:48 5 6 mph 1013.7mb 74f 71f
1:42 5 7 mph 1013.6mb 74f 71f
1:36 6 7 mph 1013.7mb 74f 71f
1:30 6
mph
1013.8mb 74f 71f
1:24 5 6 mph 1013.7mb 74f 71f
1:18 5 6 mph 1013.8mb 74f 72f
1:12 5 6 mph 1013.8mb 74f 72f
1:06 5
mph
1013.8mb 74f 72f
1:00 5
mph
1013.8mb 74f 72f
12:54 5
mph
1013.9mb 74f 72f
12:48 5
mph
1013.9mb 74f 72f
12:42 2 3 mph 1014mb 74f 72f
12:36 3 5 mph 1014mb 74f 72f
12:30 3
mph
1014.1mb 74f 73f
12:24 2
mph
1014.2mb 74f 73f
12:18 2
mph
1014.1mb 74f 73f
12:12 2
mph
1014.1mb 74f 73f
12:06 2
mph
1014.2mb 74f 73f
12:00 2 5 mph 1014.3mb 74f 73f
Ter 07/28 11:54 5
mph
1014.2mb 74f 73f
11:48 2
mph
1014.1mb 75f 73f
11:42 2 3 mph 1014mb 75f 73f
11:36 3
mph
1014mb 75f 73f
11:30 2 3 mph 1014.1mb 75f 73f
11:24 3
mph
1014.2mb 75f 73f
11:18 3 5 mph 1014.2mb 75f 73f
11:12 3 5 mph 1014.2mb 75f 74f
11:06 3 5 mph 1014.2mb 75f 74f
11:00 5
mph
1014.2mb 74f 73f
10:54 5 6 mph 1014.2mb 74f 73f
10:48 5
mph
1014.2mb 74f 73f
10:42 3 6 mph 1014.1mb 74f 73f
10:36 7 8 mph 1014.1mb 74f 73f
10:30 6
mph
1014.1mb 74f 73f
10:24 5 6 mph 1014.1mb 74f 73f
10:18 5 6 mph 1014.2mb 73f 74f
10:12 3 5 mph 1014.3mb 72f 74f
10:06 5
mph
1014.2mb 72f 74f
10:00 3
mph
1014.2mb 72f 74f
9:54 3 5 mph 1014.3mb 72f 74f
9:48 5
mph
1014.2mb 72f 74f
9:42 2 3 mph 1014.2mb 72f 74f
9:36 2 5 mph 1014.2mb 72f 74f
9:30 3 5 mph 1014.2mb 72f 74f
9:24 2 3 mph 1014.2mb 72f 74f
9:18 2
mph
1014.2mb 72f 74f
9:12 2
mph
1014.2mb 72f 74f
9:06 3 6 mph 1014.2mb 72f 73f
9:00 5
mph
1014.1mb 72f 74f
8:54 2 3 mph 1014mb 72f 74f
8:48 2 5 mph 1014mb 72f 74f
8:42 5 7 mph 1013.9mb 72f 75f
8:36 6 7 mph 1013.7mb 72f 75f
8:30 6 8 mph 1013.6mb 72f 76f
8:24 8 10 mph 1013.5mb 72f 76f
8:18 7 8 mph 1013.5mb 72f 75f
8:12 6 7 mph 1013.5mb 73f 74f
8:06 6 7 mph 1013.5mb 73f 74f
8:00 7
mph
1013.4mb 73f 74f
7:54 5 6 mph 1013.4mb 73f 74f
7:48 6
mph
1013.4mb 73f 73f
7:42 5 6 mph 1013.4mb 73f 73f
7:36 5 6 mph 1013.5mb 74f 74f
7:30 6 7 mph 1013.4mb 74f 74f
7:24 7
mph
1013.4mb 74f 74f
7:18 6
mph
1013.4mb 74f 73f
7:12 6 10 mph 1013.4mb 74f 73f
7:06 10 11 mph 1013.5mb 74f 73f
7:00 8
mph
1013.5mb 74f 74f
6:54 7
mph
1013.5mb 74f 73f
6:48 6 8 mph 1013.5mb 74f 74f
6:42 7 8 mph 1013.5mb 74f 74f
6:36 8 10 mph 1013.4mb 74f 75f
6:30 8 10 mph 1013.4mb 73f 76f
6:24 9 16 mph 1013.3mb 73f 75f
6:18 16 24 mph 1013.2mb 73f 74f
6:12 22 26 mph 1013.4mb 73f 74f
6:06 15 20 mph 1013.5mb 73f 75f
6:00 17 18 mph 1013.4mb 73f 75f
5:54 14 17 mph 1013.4mb 73f 75f
5:48 18 21 mph 1013.4mb 73f 76f
5:42 13 15 mph 1013.4mb 73f 76f
5:36 13 15 mph 1013.3mb 73f 77f
5:30 14 20 mph 1013.2mb 73f 76f
5:24 16 23 mph 1013.4mb 73f 76f
5:18 22 26 mph 1013.4mb 74f 76f
5:12 22 26 mph 1013.5mb 74f 75f
5:06 22 29 mph 1013.5mb 74f 75f
5:00 11 13 mph 1012.8mb 75f 78f
4:54 10 11 mph 1012.8mb 75f 77f
4:48 10 11 mph 1012.9mb 75f 78f
4:42 11 14 mph 1012.6mb 75f 77f
4:36 10 13 mph 1012.5mb 75f 77f
4:30 10 13 mph 1012.2mb 75f 77f
4:24 13 14 mph 1012.1mb 75f 76f
4:18 11 13 mph 1012.2mb 75f 77f
4:12 13 15 mph 1012.6mb 75f 76f
4:06 15 17 mph 1012.6mb 75f 76f
4:00 13 17 mph 1012.7mb 75f 76f
3:54 17 18 mph 1012.6mb 75f 76f
3:48 15 16 mph 1012.7mb 75f 77f
3:42 16 18 mph 1012.6mb 75f 77f
3:36 14 15 mph 1012.7mb 75f 78f
3:30 13 16 mph 1012.7mb 75f 78f
3:24 14 15 mph 1012.7mb 75f 78f
3:18 11 15 mph 1012.7mb 75f 78f
3:12 13 14 mph 1012.8mb 75f 78f
3:06 13 15 mph 1012.8mb 75f 78f
3:00 14 15 mph 1012.8mb 75f 79f
2:54 14
mph
1012.9mb 75f 79f
2:48 13 14 mph 1012.9mb 74f 80f
2:42 13 14 mph 1012.9mb 74f 80f
2:36 13 14 mph 1013mb 74f 80f
2:30 14
mph
1013mb 74f 79f
2:24 14 15 mph 1013.1mb 74f 79f
2:18 14 16 mph 1013.1mb 74f 78f
2:12 13 15 mph 1013.2mb 74f 78f
2:06 15 16 mph 1013.2mb 74f 78f
2:00 13 14 mph 1013.3mb 74f 78f
1:54 11 13 mph 1013.3mb 74f 78f
1:48 9 13 mph 1013.4mb 74f 78f
1:42 11 13 mph 1013.4mb 74f 78f
1:36 11
mph
1013.4mb 74f 77f
1:30 11 13 mph 1013.4mb 74f 77f
1:24 11 14 mph 1013.4mb 74f 77f
1:18 13 14 mph 1013.5mb 74f 77f
1:12 13 14 mph 1013.5mb 74f 77f
1:06 13
mph
1013.5mb 74f 77f
1:00 11 13 mph 1013.6mb 74f 77f
12:54 11 13 mph 1013.7mb 74f 76f
12:48 10
mph
1013.7mb 74f 77f
12:42 9 10 mph 1013.8mb 74f 76f
12:36 9 10 mph 1013.8mb 74f 76f
12:30 10
mph
1013.9mb 74f 76f
12:24 10
mph
1014mb 74f 76f
12:18 8 10 mph 1014mb 74f 76f
12:12 8 9 mph 1014mb 74f 76f
12:06 7 9 mph 1014mb 74f 76f
12:00 8
mph
1014.1mb 74f 76f
11:54 6 8 mph 1014.2mb 74f 76f
11:48 8
mph
1014.2mb 74f 76f
11:42 7 8 mph 1014.3mb 74f 76f
11:36 7
mph
1014.3mb 73f 76f
11:30 7 8 mph 1014.4mb 73f 76f
11:24 6 7 mph 1014.4mb 73f 76f
11:18 6 7 mph 1014.3mb 73f 76f
11:12 6 7 mph 1014.4mb 73f 76f
11:06 6 8 mph 1014.5mb 73f 76f
11:00 7 8 mph 1014.4mb 73f 76f
10:54 7 9 mph 1014.5mb 73f 76f
10:48 7 8 mph 1014.6mb 73f 76f
10:42 7 8 mph 1014.7mb 73f 76f
10:36 8
mph
1014.7mb 73f 75f
10:30 7
mph
1014.7mb 73f 75f
10:24 6 11 mph 1014.7mb 73f 75f
10:18 8 9 mph 1014.8mb 73f 74f
10:12 7 8 mph 1014.7mb 73f 74f
10:06 7 9 mph 1014.7mb 72f 74f
10:00 8 11 mph 1014.7mb 72f 74f
9:54 8 9 mph 1014.8mb 72f 74f
9:48 8 10 mph 1014.8mb 72f 74f
9:42 7 8 mph 1014.9mb 72f 74f
9:36 7 8 mph 1014.9mb 72f 74f
9:30 7 9 mph 1015mb 72f 74f
9:24 8 10 mph 1015.1mb 72f 74f
9:18 6 7 mph 1015.2mb 72f 74f
9:12 7 9 mph 1015.2mb 72f 74f
9:06 6 7 mph 1015.3mb 71f 74f
9:00 5 7 mph 1015.3mb 71f 73f
8:54 6 8 mph 1015.4mb 71f 73f
8:48 8 10 mph 1015.3mb 71f 73f
8:42 8 11 mph 1015.3mb 71f 73f
8:36 10 13 mph 1015.3mb 70f 73f
8:30 8 9 mph 1015.3mb 70f 73f
8:24 7 9 mph 1015.3mb 70f 73f
8:18 7 10 mph 1015.4mb 71f 73f
8:12 9 11 mph 1015.4mb 71f 73f
8:06 10 13 mph 1015.3mb 71f 73f
8:00 9 11 mph 1015.3mb 71f 72f
7:54 9 10 mph 1015.4mb 71f 72f
7:48 8 10 mph 1015.4mb 71f 72f
7:42 8 10 mph 1015.3mb 71f 72f
7:36 8 9 mph 1015.4mb 71f 72f
7:30 7 10 mph 1015.5mb 72f 72f
7:24 8 9 mph 1015.5mb 72f 72f
7:18 8 10 mph 1015.5mb 72f 72f
7:12 7 8 mph 1015.5mb 72f 72f
7:06 7 11 mph 1015.6mb 72f 72f
7:00 8 11 mph 1015.6mb 72f 72f
6:54 7 10 mph 1015.5mb 72f 72f
6:48 9 10 mph 1015.5mb 72f 72f
6:42 8 11 mph 1015.5mb 72f 72f
6:36 8 10 mph 1015.5mb 72f 72f
6:30 8 10 mph 1015.4mb 72f 72f
6:24 9
mph
1015.4mb 72f 72f
6:18 8 9 mph 1015.3mb 72f 72f
6:12 7 8 mph 1015.3mb 73f 72f
6:06 6 8 mph 1015.4mb 73f 72f
6:00 6 7 mph 1015.4mb 73f 72f
5:54 6 7 mph 1015.3mb 73f 71f
5:48 6 7 mph 1015.3mb 73f 71f
5:42 6 8 mph 1015.3mb 73f 71f
5:36 6 8 mph 1015.4mb 73f 71f
5:30 7 8 mph 1015.3mb 73f -
5:24 7 9 mph 1015.3mb 73f -
5:18  -  mph - - 71f
5:12  -  mph - - 71f
5:06  -  mph - - 71f
5:00 8 11 mph 1015.3mb 73f 71f
4:54 9 10 mph 1015.3mb 73f 71f
4:48 9 10 mph 1015.4mb 73f 71f
4:42 7 9 mph 1015.4mb 73f 71f
4:36 8 10 mph 1015.4mb 73f 71f
4:30 7 9 mph 1015.4mb 73f 71f
4:24 6
mph
1015.5mb 73f 71f
4:18 6
mph
1015.5mb 73f 71f
4:12 6 7 mph 1015.5mb 73f 71f
4:06 6
mph
1015.5mb 73f 71f
4:00 6
mph
1015.6mb 73f 71f
3:54 6 7 mph 1015.6mb 73f 71f
3:48 6 7 mph 1015.5mb 73f 71f
3:42 6 8 mph 1015.4mb 73f 71f
3:36 6 7 mph 1015.4mb 73f 71f
3:30 6 7 mph 1015.4mb 73f 71f
3:24 7
mph
1015.5mb 73f 71f
3:18 7 8 mph 1015.5mb 73f 71f
3:12 7 9 mph 1015.6mb 73f 71f
3:06 8 9 mph 1015.5mb 73f 71f
3:00 8 10 mph 1015.7mb 73f 72f
2:54 8 10 mph 1015.6mb 73f 71f
2:48 9 10 mph 1015.5mb 73f 71f
2:42 9 10 mph 1015.6mb 73f 71f
2:36 8 9 mph 1015.7mb 73f 71f
2:30 7 9 mph 1015.7mb 73f 71f
2:24 9 11 mph 1015.8mb 73f 71f
2:18 8 9 mph 1015.8mb 73f 71f
2:12 9 10 mph 1015.8mb 73f 71f
2:06 10 11 mph 1015.6mb 73f 71f
2:00 11 14 mph 1015.6mb 73f 71f
1:54 11 13 mph 1015.7mb 73f 71f
1:48 11 13 mph 1015.7mb 73f 71f